Stanford, California
Current Conditions -  °F | °C
As of 8:47 PM on Monday 20 Oct 2014 (Local Time) from KPAO Reporting Station
Few Clouds Few Clouds  
Wind Chill: 61°   Ceiling: Unl
Heat Index: 61°   Visibility: 10mi
Dew Point: 55°   Wind: 7mph
Humidity: 82%   Direction: NA
Pressure: 30.02"   Gusts: NA
Location:  37.43°N, 122.16°W
Report Text: KPAO 210347Z VRB06KT 10SM FEW020 16/13 A3002
Loading
Personal Weather Stations






























Interactive Weather Map
Tropical Storm Tracking
New forecast layout! Learn more

10-Day Weather Forecast

Advertisements
Track Severe Weather on mobile